Doha, Qatar
Current Conditions -  °F | °C
As of 2:00 AM on Sunday 26 Oct 2014 (Local Time) from OTBD Reporting Station
Clear Clear  
Wind Chill: 79°   Ceiling: Unl
Heat Index: 81°   Visibility: 6mi
Dew Point: 68°   Wind: 2mph
Humidity: 69%   Direction: NA
Pressure: 29.88"   Gusts: NA
Location:  25.3°N, 51.51°E
Report Text: OTBD 252300Z VRB02KT CAVOK 26/20 Q1012 NOSIG
Loading
Personal Weather Stations






























Interactive Weather Map
Tropical Storm Tracking
New forecast layout! Learn more

10-Day Weather Forecast

Advertisements
Track Severe Weather on mobile